createdAt,value
2019-04-25T00:01:03.286Z,12.82
2019-04-25T00:03:35.195Z,12.85
2019-04-25T00:06:05.323Z,11.70
2019-04-25T00:08:35.435Z,11.35
2019-04-25T00:11:07.703Z,10.75
2019-04-25T00:13:38.029Z,10.72
2019-04-25T00:16:08.409Z,8.73
2019-04-25T00:18:38.885Z,10.63
2019-04-25T00:21:13.058Z,9.20
2019-04-25T00:23:44.991Z,10.05
2019-04-25T00:26:32.921Z,9.63
2019-04-25T00:29:04.032Z,10.20
2019-04-25T00:31:34.186Z,8.93
2019-04-25T00:34:04.446Z,10.90
2019-04-25T00:36:34.562Z,9.70
2019-04-25T00:39:06.847Z,11.08
2019-04-25T00:41:37.806Z,10.48
2019-04-25T00:44:27.366Z,9.78
2019-04-25T00:46:57.583Z,9.35
2019-04-25T00:49:27.632Z,10.03
2019-04-25T00:51:57.658Z,11.08
2019-04-25T00:54:27.632Z,9.75
2019-04-25T00:56:57.611Z,14.43
2019-04-25T00:59:32.132Z,14.78
2019-04-25T01:02:11.377Z,10.18
2019-04-25T01:04:41.938Z,9.90
2019-04-25T01:07:12.666Z,10.90
2019-04-25T01:09:43.461Z,11.30
2019-04-25T01:12:16.117Z,10.72
2019-04-25T01:14:46.521Z,11.68
2019-04-25T01:17:16.515Z,9.53
2019-04-25T01:19:46.807Z,11.33
2019-04-25T01:22:17.175Z,12.35
2019-04-25T01:24:48.326Z,12.35
2019-04-25T01:27:18.455Z,11.38
2019-04-25T01:29:48.615Z,11.63
2019-04-25T01:32:20.445Z,10.90
2019-04-25T01:34:54.613Z,10.82
2019-04-25T01:37:34.574Z,9.65
2019-04-25T01:40:11.591Z,12.10
2019-04-25T01:42:43.853Z,14.38
2019-04-25T01:45:14.439Z,13.65
2019-04-25T01:47:45.566Z,11.47
2019-04-25T01:50:15.617Z,11.75
2019-04-25T01:52:45.695Z,13.48
2019-04-25T01:55:15.709Z,12.82
2019-04-25T01:57:45.759Z,11.25
2019-04-25T02:00:17.648Z,12.80
2019-04-25T02:02:47.774Z,14.07
2019-04-25T02:05:18.056Z,13.08
2019-04-25T02:07:48.243Z,13.13
2019-04-25T02:10:18.563Z,12.10
2019-04-25T02:12:55.177Z,10.05
2019-04-25T02:15:26.339Z,11.22
2019-04-25T02:17:58.027Z,10.00
2019-04-25T02:20:28.260Z,11.15
2019-04-25T02:22:58.419Z,12.30
2019-04-25T02:25:28.471Z,10.85
2019-04-25T02:28:01.120Z,10.85
2019-04-25T02:30:30.251Z,10.23
2019-04-25T02:33:06.120Z,10.80
2019-04-25T02:35:34.734Z,10.00
2019-04-25T02:38:08.360Z,9.20
2019-04-25T02:40:35.528Z,7.85
2019-04-25T02:43:08.005Z,9.20
2019-04-25T02:45:48.048Z,10.00
2019-04-25T02:48:26.584Z,11.20
2019-04-25T02:51:10.000Z,11.05
2019-04-25T02:53:44.456Z,9.58
2019-04-25T02:56:30.390Z,12.53
2019-04-25T02:58:45.154Z,9.15
2019-04-25T03:01:22.375Z,9.83
2019-04-25T03:03:48.684Z,9.60
2019-04-25T03:06:18.855Z,10.30
2019-04-25T03:08:48.817Z,11.75
2019-04-25T03:11:19.005Z,10.55
2019-04-25T03:13:49.157Z,9.08
2019-04-25T03:16:19.255Z,8.75
2019-04-25T03:18:54.446Z,10.55
2019-04-25T03:21:28.992Z,10.68
2019-04-25T03:24:00.088Z,9.08
2019-04-25T03:26:39.870Z,9.38
2019-04-25T03:29:04.652Z,9.55
2019-04-25T03:31:35.016Z,8.68
2019-04-25T03:34:09.823Z,9.23
2019-04-25T03:36:36.987Z,9.73
2019-04-25T03:39:08.691Z,11.30
2019-04-25T03:41:38.731Z,9.95
2019-04-25T03:44:16.377Z,9.78
2019-04-25T03:46:47.137Z,9.98
2019-04-25T03:49:17.260Z,10.60
2019-04-25T03:51:47.344Z,9.08
2019-04-25T03:54:17.455Z,9.53
2019-04-25T03:56:53.444Z,9.25
2019-04-25T03:59:19.118Z,9.08
2019-04-25T04:01:49.160Z,7.92
2019-04-25T04:04:19.163Z,8.68
2019-04-25T04:06:49.273Z,8.50
2019-04-25T04:09:19.275Z,9.85
2019-04-25T04:11:49.251Z,9.43
2019-04-25T04:14:19.427Z,9.90
2019-04-25T04:17:07.718Z,8.93
2019-04-25T04:19:40.315Z,9.38
2019-04-25T04:22:11.991Z,9.23
2019-04-25T04:24:44.027Z,8.73
2019-04-25T04:27:16.837Z,9.28
2019-04-25T04:29:46.834Z,10.65
2019-04-25T04:32:17.366Z,9.73
2019-04-25T04:34:47.412Z,10.65
2019-04-25T04:37:17.579Z,10.25
2019-04-25T04:39:48.771Z,10.70
2019-04-25T04:42:18.829Z,9.20
2019-04-25T04:44:48.796Z,10.72
2019-04-25T04:47:18.771Z,10.23
2019-04-25T04:49:48.814Z,12.58
2019-04-25T04:52:18.951Z,11.53
2019-04-25T04:54:48.971Z,11.10
2019-04-25T04:57:29.089Z,11.33
2019-04-25T04:59:50.716Z,12.10
2019-04-25T05:02:23.542Z,13.25
2019-04-25T05:05:14.820Z,11.05
2019-04-25T05:07:47.014Z,13.55
2019-04-25T05:10:18.695Z,12.25
2019-04-25T05:12:48.794Z,12.20
2019-04-25T05:15:19.146Z,10.38
2019-04-25T05:17:49.447Z,12.13
2019-04-25T05:20:20.126Z,11.18
2019-04-25T05:22:50.147Z,11.28
2019-04-25T05:25:20.660Z,11.30
2019-04-25T05:27:59.654Z,11.77
2019-04-25T05:30:26.457Z,11.53
2019-04-25T05:32:55.712Z,12.85
2019-04-25T05:35:25.795Z,12.15
2019-04-25T05:37:55.922Z,13.90
2019-04-25T05:40:25.931Z,13.75
2019-04-25T05:43:06.288Z,13.48
2019-04-25T05:45:36.692Z,14.15
2019-04-25T05:48:08.347Z,14.65
2019-04-25T05:50:38.388Z,13.18
2019-04-25T05:53:08.583Z,13.28
2019-04-25T05:55:38.627Z,13.43
2019-04-25T05:58:08.600Z,13.68
2019-04-25T06:00:38.975Z,13.13
2019-04-25T06:03:09.089Z,13.75
2019-04-25T06:05:39.195Z,13.13
2019-04-25T06:08:09.235Z,13.95
2019-04-25T06:10:40.995Z,15.85
2019-04-25T06:13:13.773Z,18.15
2019-04-25T06:15:46.604Z,13.58
2019-04-25T06:18:30.018Z,14.03
2019-04-25T06:21:00.891Z,15.32
2019-04-25T06:23:48.503Z,14.63
2019-04-25T06:26:26.782Z,16.52
2019-04-25T06:28:57.080Z,14.03
2019-04-25T06:31:24.043Z,14.90
2019-04-25T06:33:54.027Z,15.70
2019-04-25T06:36:24.582Z,15.45
2019-04-25T06:38:55.356Z,13.60
2019-04-25T06:41:26.167Z,14.28
2019-04-25T06:44:13.613Z,13.03
2019-04-25T06:46:45.340Z,13.00
2019-04-25T06:49:17.000Z,13.08
2019-04-25T06:51:51.268Z,10.93
2019-04-25T06:54:21.983Z,10.30
2019-04-25T06:56:53.582Z,12.65
2019-04-25T06:59:25.976Z,11.43
2019-04-25T07:01:56.234Z,11.43
2019-04-25T07:04:27.096Z,12.15
2019-04-25T07:07:09.623Z,11.55
2019-04-25T07:09:31.151Z,12.75
2019-04-25T07:12:01.471Z,10.88
2019-04-25T07:14:31.613Z,11.95
2019-04-25T07:17:01.611Z,10.95
2019-04-25T07:19:32.083Z,10.50
2019-04-25T07:22:03.811Z,12.13
2019-04-25T07:24:35.357Z,11.08
2019-04-25T07:29:52.079Z,11.22
2019-04-25T07:32:25.503Z,12.53
2019-04-25T07:34:55.907Z,11.88
2019-04-25T07:37:26.069Z,13.45
2019-04-25T07:39:56.204Z,12.35
2019-04-25T07:42:26.324Z,12.20
2019-04-25T07:44:56.507Z,11.73
2019-04-25T07:47:26.958Z,11.33
2019-04-25T07:49:57.048Z,11.33
2019-04-25T07:52:27.198Z,14.28
2019-04-25T07:54:57.215Z,11.28
2019-04-25T07:57:27.864Z,11.65
2019-04-25T07:59:58.149Z,12.58
2019-04-25T08:02:28.523Z,12.68
2019-04-25T08:05:00.513Z,12.10
2019-04-25T08:07:31.571Z,11.80
2019-04-25T08:10:01.627Z,12.58
2019-04-25T08:12:34.658Z,12.75
2019-04-25T08:15:15.348Z,11.50
2019-04-25T08:17:47.061Z,11.73
2019-04-25T08:20:19.143Z,10.93
2019-04-25T08:22:56.515Z,10.98
2019-04-25T08:25:21.303Z,10.82
2019-04-25T08:27:51.392Z,11.05
2019-04-25T08:30:21.513Z,12.88
2019-04-25T08:32:51.724Z,12.18
2019-04-25T08:35:21.807Z,11.35
2019-04-25T08:37:53.625Z,9.08
2019-04-25T08:40:23.995Z,10.88
2019-04-25T08:42:54.123Z,12.53
2019-04-25T08:45:24.548Z,10.85
2019-04-25T08:47:57.615Z,10.85
2019-04-25T08:50:33.176Z,9.53
2019-04-25T08:53:01.150Z,9.33
2019-04-25T08:55:45.718Z,10.25
2019-04-25T08:58:35.452Z,9.38
2019-04-25T09:01:24.112Z,8.75
2019-04-25T09:04:03.586Z,9.08
2019-04-25T09:06:37.268Z,9.88
2019-04-25T09:09:08.190Z,11.53
2019-04-25T09:11:41.422Z,8.75
2019-04-25T09:14:14.224Z,9.23
2019-04-25T09:16:45.157Z,10.70
2019-04-25T09:19:18.048Z,9.18
2019-04-25T09:21:49.616Z,8.55
2019-04-25T09:24:24.857Z,9.50
2019-04-25T09:26:55.111Z,9.63
2019-04-25T09:29:25.288Z,8.60
2019-04-25T09:31:55.507Z,8.08
2019-04-25T09:34:25.645Z,8.03
2019-04-25T09:36:55.747Z,7.80
2019-04-25T09:39:30.215Z,8.98
2019-04-25T09:42:00.474Z,8.58
2019-04-25T09:44:37.072Z,8.23
2019-04-25T09:47:07.084Z,8.45
2019-04-25T09:49:39.138Z,8.30
2019-04-25T09:52:13.290Z,7.35
2019-04-25T09:54:46.364Z,7.97
2019-04-25T09:57:34.183Z,8.43
2019-04-25T10:00:08.669Z,8.25
2019-04-25T10:02:38.784Z,8.08
2019-04-25T10:05:08.863Z,7.25
2019-04-25T10:07:39.039Z,6.75
2019-04-25T10:10:10.283Z,7.83
2019-04-25T10:15:30.275Z,6.85
2019-04-25T10:18:00.396Z,7.58
2019-04-25T10:20:30.646Z,7.50
2019-04-25T10:23:00.768Z,8.58
2019-04-25T10:25:30.920Z,8.03
2019-04-25T10:28:00.975Z,7.62
2019-04-25T10:30:31.151Z,7.90
2019-04-25T10:33:01.332Z,8.50
2019-04-25T10:35:40.870Z,7.95
2019-04-25T10:38:03.826Z,7.80
2019-04-25T10:40:34.674Z,8.20
2019-04-25T10:43:06.447Z,7.65
2019-04-25T10:45:37.140Z,6.33
2019-04-25T10:48:08.215Z,6.87
2019-04-25T10:50:40.019Z,7.05
2019-04-25T10:53:10.140Z,7.78
2019-04-25T10:55:41.375Z,7.33
2019-04-25T10:58:11.591Z,6.80
2019-04-25T11:00:46.112Z,8.55
2019-04-25T11:03:33.699Z,5.85
2019-04-25T11:06:05.539Z,7.10
2019-04-25T11:08:35.827Z,5.83
2019-04-25T11:11:06.003Z,6.80
2019-04-25T11:13:36.459Z,5.97
2019-04-25T11:16:07.704Z,6.23
2019-04-25T11:18:37.825Z,6.78
2019-04-25T11:21:07.764Z,7.37
2019-04-25T11:23:37.843Z,8.33
2019-04-25T11:26:07.955Z,7.47
2019-04-25T11:28:38.831Z,7.45
2019-04-25T11:31:10.592Z,7.83
2019-04-25T11:33:40.667Z,7.17
2019-04-25T11:36:10.720Z,6.75
2019-04-25T11:38:58.697Z,6.70
2019-04-25T11:41:28.875Z,6.78
2019-04-25T11:44:13.880Z,8.05
2019-04-25T11:46:46.425Z,6.53
2019-04-25T11:49:16.903Z,7.28
2019-04-25T11:51:48.173Z,7.03
2019-04-25T11:56:47.366Z,7.25
2019-04-25T11:59:19.690Z,7.85
2019-04-25T12:01:49.932Z,7.58
2019-04-25T12:04:20.038Z,6.67
2019-04-25T12:06:50.136Z,6.37
2019-04-25T12:09:21.064Z,7.15
2019-04-25T12:11:51.179Z,7.10
2019-04-25T12:14:21.291Z,7.00
2019-04-25T12:16:52.527Z,7.42
2019-04-25T12:19:35.112Z,6.20
2019-04-25T12:21:58.336Z,6.85
2019-04-25T12:24:28.367Z,7.83
2019-04-25T12:26:58.453Z,6.97
2019-04-25T12:29:28.498Z,6.95
2019-04-25T12:31:58.664Z,9.40
2019-04-25T12:34:28.807Z,8.35
2019-04-25T12:36:59.821Z,8.18
2019-04-25T12:39:34.179Z,7.45
2019-04-25T12:42:04.659Z,7.40
2019-04-25T12:44:43.411Z,7.53
2019-04-25T12:47:27.569Z,8.18
2019-04-25T12:49:58.586Z,6.97
2019-04-25T12:52:28.665Z,8.88
2019-04-25T12:54:58.711Z,8.05
2019-04-25T12:57:29.194Z,9.08
2019-04-25T12:59:59.239Z,7.50
2019-04-25T13:02:29.315Z,7.62
2019-04-25T13:04:59.359Z,7.78
2019-04-25T13:07:29.477Z,7.22
2019-04-25T13:09:59.583Z,8.48
2019-04-25T13:12:29.619Z,6.92
2019-04-25T13:14:59.673Z,6.87
2019-04-25T13:17:29.792Z,8.55
2019-04-25T13:19:59.870Z,6.53
2019-04-25T13:22:29.960Z,7.72
2019-04-25T13:25:00.002Z,7.17
2019-04-25T13:27:33.563Z,7.75
2019-04-25T13:30:11.820Z,7.30
2019-04-25T13:32:46.476Z,9.63
2019-04-25T13:35:18.224Z,7.15
2019-04-25T13:37:48.419Z,7.62
2019-04-25T13:40:18.565Z,8.55
2019-04-25T13:42:48.791Z,9.55
2019-04-25T13:45:23.235Z,9.38
2019-04-25T13:47:54.099Z,7.92
2019-04-25T13:50:25.169Z,9.10
2019-04-25T13:52:56.051Z,9.05
2019-04-25T13:55:26.238Z,9.83
2019-04-25T13:57:56.383Z,8.10
2019-04-25T14:00:27.496Z,8.63
2019-04-25T14:02:57.747Z,9.13
2019-04-25T14:05:28.280Z,8.08
2019-04-25T14:07:58.396Z,9.13
2019-04-25T14:10:28.611Z,9.23
2019-04-25T14:12:58.736Z,10.70
2019-04-25T14:15:29.883Z,9.58
2019-04-25T14:18:17.775Z,9.93
2019-04-25T14:20:49.455Z,9.35
2019-04-25T14:23:19.535Z,8.98
2019-04-25T14:25:49.576Z,8.85
2019-04-25T14:28:19.851Z,10.58
2019-04-25T14:30:50.008Z,10.68
2019-04-25T14:33:20.230Z,8.38
2019-04-25T14:35:50.316Z,10.28
2019-04-25T14:38:21.204Z,9.30
2019-04-25T14:40:51.281Z,10.55
2019-04-25T14:43:22.378Z,8.08
2019-04-25T14:45:52.567Z,9.78
2019-04-25T14:48:23.569Z,8.58
2019-04-25T14:50:53.468Z,10.25
2019-04-25T14:53:24.290Z,8.65
2019-04-25T14:56:15.270Z,10.28
2019-04-25T14:58:46.299Z,11.53
2019-04-25T15:01:17.967Z,10.40
2019-04-25T15:03:48.003Z,9.13
2019-04-25T15:06:18.042Z,8.33
2019-04-25T15:08:48.043Z,8.75
2019-04-25T15:11:18.173Z,10.48
2019-04-25T15:13:48.107Z,9.70
2019-04-25T15:16:18.153Z,8.83
2019-04-25T15:18:48.196Z,8.55
2019-04-25T15:21:18.862Z,9.35
2019-04-25T15:23:59.701Z,9.45
2019-04-25T15:26:20.591Z,8.60
2019-04-25T15:28:50.805Z,9.78
2019-04-25T15:31:20.882Z,10.38
2019-04-25T15:33:50.994Z,9.40
2019-04-25T15:36:24.762Z,10.25
2019-04-25T15:39:01.912Z,10.28
2019-04-25T15:41:50.291Z,10.20
2019-04-25T15:44:30.968Z,9.48
2019-04-25T15:47:02.829Z,10.00
2019-04-25T15:49:32.943Z,9.48
2019-04-25T15:52:03.025Z,9.43
2019-04-25T15:54:33.885Z,8.60
2019-04-25T15:57:04.959Z,6.62
2019-04-25T15:59:35.079Z,6.95
2019-04-25T16:02:08.137Z,7.87
2019-04-25T16:04:38.608Z,6.83
2019-04-25T16:07:09.988Z,5.50
2019-04-25T16:12:10.704Z,5.87
2019-04-25T16:14:41.243Z,5.58
2019-04-25T16:17:12.291Z,5.97
2019-04-25T16:19:42.367Z,5.72
2019-04-25T16:22:12.412Z,7.12
2019-04-25T16:24:43.394Z,7.25
2019-04-25T16:27:14.075Z,7.72
2019-04-25T16:29:44.158Z,8.30
2019-04-25T16:32:20.844Z,7.60
2019-04-25T16:34:47.608Z,7.20
2019-04-25T16:37:17.723Z,6.35
2019-04-25T16:39:48.083Z,8.03
2019-04-25T16:42:19.715Z,7.30
2019-04-25T16:44:49.876Z,6.45
2019-04-25T16:47:21.728Z,5.22
2019-04-25T16:49:51.855Z,6.40
2019-04-25T16:52:22.448Z,5.83
2019-04-25T16:54:52.572Z,6.25
2019-04-25T16:57:22.791Z,5.15
2019-04-25T16:59:52.892Z,6.03
2019-04-25T17:02:33.027Z,4.33
2019-04-25T17:04:56.666Z,4.75
2019-04-25T17:07:27.065Z,4.87
2019-04-25T17:09:57.373Z,4.75
2019-04-25T17:12:27.643Z,4.70
2019-04-25T17:15:05.072Z,3.62
2019-04-25T17:17:40.320Z,4.15
2019-04-25T17:20:18.069Z,3.85
2019-04-25T17:22:54.796Z,4.17
2019-04-25T17:25:28.332Z,4.37
2019-04-25T17:27:58.576Z,4.22
2019-04-25T17:30:31.242Z,4.50
2019-04-25T17:33:17.887Z,3.95
2019-04-25T17:36:04.412Z,3.27
2019-04-25T17:38:37.557Z,6.30
2019-04-25T17:41:09.312Z,3.90
2019-04-25T17:43:41.796Z,5.05
2019-04-25T17:46:14.223Z,3.98
2019-04-25T17:48:44.327Z,4.85
2019-04-25T17:51:14.790Z,3.65
2019-04-25T17:53:44.964Z,4.27
2019-04-25T17:56:15.071Z,3.70
2019-04-25T17:58:45.227Z,4.47
2019-04-25T18:01:17.112Z,4.83
2019-04-25T18:03:47.215Z,4.10
2019-04-25T18:06:17.360Z,3.92
2019-04-25T18:08:47.481Z,4.53
2019-04-25T18:11:17.595Z,4.30
2019-04-25T18:13:47.609Z,4.65
2019-04-25T18:16:25.133Z,5.17
2019-04-25T18:18:59.574Z,6.53
2019-04-25T18:21:29.699Z,5.47
2019-04-25T18:24:08.641Z,4.53
2019-04-25T18:26:44.365Z,4.25
2019-04-25T18:29:16.758Z,3.70
2019-04-25T18:31:46.909Z,4.40
2019-04-25T18:34:18.656Z,4.15
2019-04-25T18:37:06.599Z,5.75
2019-04-25T18:39:38.346Z,4.55
2019-04-25T18:42:11.044Z,3.87
2019-04-25T18:44:42.471Z,4.80
2019-04-25T18:49:43.124Z,4.35
2019-04-25T18:52:23.755Z,5.25
2019-04-25T18:54:55.332Z,5.17
2019-04-25T18:57:27.090Z,4.35
2019-04-25T18:59:58.803Z,4.20
2019-04-25T19:02:30.483Z,3.87
2019-04-25T19:05:02.124Z,4.37
2019-04-25T19:07:34.024Z,5.03
2019-04-25T19:10:07.104Z,3.77
2019-04-25T19:12:37.224Z,4.60
2019-04-25T19:15:08.103Z,5.12
2019-04-25T19:17:38.853Z,5.22
2019-04-25T19:20:09.955Z,4.83
2019-04-25T19:22:40.248Z,5.03
2019-04-25T19:25:10.390Z,5.33
2019-04-25T19:27:42.090Z,5.45
2019-04-25T19:30:13.907Z,6.47
2019-04-25T19:32:44.892Z,6.20
2019-04-25T19:35:15.019Z,5.97
2019-04-25T19:37:45.104Z,6.00
2019-04-25T19:40:18.316Z,5.47
2019-04-25T19:42:49.998Z,5.58
2019-04-25T19:45:21.142Z,6.10
2019-04-25T19:47:51.543Z,6.83
2019-04-25T19:50:21.642Z,5.97
2019-04-25T19:52:52.168Z,6.28
2019-04-25T19:55:22.286Z,6.15
2019-04-25T19:57:52.528Z,5.78
2019-04-25T20:00:22.862Z,7.40
2019-04-25T20:02:54.584Z,6.35
2019-04-25T20:05:26.217Z,5.90
2019-04-25T20:08:14.159Z,6.78
2019-04-25T20:10:46.871Z,7.10
2019-04-25T20:13:16.958Z,8.13
2019-04-25T20:15:47.611Z,6.87
2019-04-25T20:18:17.648Z,6.87
2019-04-25T20:20:47.829Z,6.87
2019-04-25T20:23:17.834Z,8.15
2019-04-25T20:25:48.282Z,9.48
2019-04-25T20:28:18.315Z,10.47
2019-04-25T20:30:48.577Z,12.13
2019-04-25T20:33:18.520Z,9.83
2019-04-25T20:35:49.019Z,11.25
2019-04-25T20:38:19.074Z,10.63
2019-04-25T20:40:49.574Z,11.12
2019-04-25T20:43:19.876Z,10.48
2019-04-25T20:45:50.226Z,9.95
2019-04-25T20:48:20.351Z,9.78
2019-04-25T20:50:50.407Z,9.58
2019-04-25T20:53:20.455Z,8.10
2019-04-25T20:55:50.840Z,9.08
2019-04-25T20:58:20.867Z,9.15
2019-04-25T21:00:55.902Z,8.20
2019-04-25T21:03:26.074Z,9.75
2019-04-25T21:05:57.792Z,9.65
2019-04-25T21:08:27.907Z,9.43
2019-04-25T21:10:57.941Z,9.03
2019-04-25T21:13:41.128Z,9.03
2019-04-25T21:16:29.091Z,8.18
2019-04-25T21:19:00.779Z,10.53
2019-04-25T21:21:30.778Z,8.68
2019-04-25T21:24:01.167Z,8.55
2019-04-25T21:26:31.262Z,8.13
2019-04-25T21:29:01.196Z,11.50
2019-04-25T21:31:31.411Z,11.12
2019-04-25T21:34:01.572Z,11.08
2019-04-25T21:36:33.190Z,10.05
2019-04-25T21:39:06.515Z,10.63
2019-04-25T21:41:46.015Z,11.03
2019-04-25T21:44:17.686Z,11.03
2019-04-25T21:46:47.729Z,9.70
2019-04-25T21:49:17.908Z,11.10
2019-04-25T21:51:47.987Z,10.08
2019-04-25T21:54:17.973Z,10.38
2019-04-25T21:56:48.256Z,9.78
2019-04-25T21:59:18.427Z,11.73
2019-04-25T22:01:48.940Z,11.40
2019-04-25T22:04:19.162Z,10.40
2019-04-25T22:06:49.652Z,11.17
2019-04-25T22:09:21.067Z,12.03
2019-04-25T22:11:51.527Z,11.80
2019-04-25T22:14:21.979Z,12.82
2019-04-25T22:16:53.358Z,12.68
2019-04-25T22:19:23.876Z,13.68
2019-04-25T22:21:54.202Z,12.10
2019-04-25T22:24:24.291Z,11.68
2019-04-25T22:26:56.443Z,11.08
2019-04-25T22:29:27.608Z,10.43
2019-04-25T22:32:02.071Z,11.00
2019-04-25T22:34:34.716Z,9.90
2019-04-25T22:37:04.823Z,10.53
2019-04-25T22:39:34.871Z,12.47
2019-04-25T22:42:05.824Z,15.05
2019-04-25T22:44:36.095Z,11.33
2019-04-25T22:47:07.121Z,11.33
2019-04-25T22:49:37.231Z,11.88
2019-04-25T22:52:07.563Z,11.85
2019-04-25T22:54:37.727Z,13.38
2019-04-25T22:57:08.441Z,11.97
2019-04-25T22:59:38.799Z,13.43
2019-04-25T23:02:26.803Z,10.78
2019-04-25T23:05:05.345Z,12.07
2019-04-25T23:07:30.500Z,12.23
2019-04-25T23:10:00.711Z,11.45
2019-04-25T23:12:32.531Z,11.63
2019-04-25T23:15:03.686Z,11.60
2019-04-25T23:17:34.596Z,12.40
2019-04-25T23:20:06.059Z,12.58
2019-04-25T23:22:36.104Z,11.55
2019-04-25T23:25:09.893Z,13.45
2019-04-25T23:27:41.704Z,11.90
2019-04-25T23:30:14.448Z,12.93
2019-04-25T23:32:44.608Z,13.22
2019-04-25T23:35:28.285Z,12.35
2019-04-25T23:37:46.299Z,14.13
2019-04-25T23:40:16.419Z,12.33
2019-04-25T23:42:46.439Z,12.45
2019-04-25T23:45:16.638Z,12.85
2019-04-25T23:47:46.602Z,12.47
2019-04-25T23:50:16.927Z,13.22
2019-04-25T23:52:47.007Z,13.22
2019-04-25T23:55:17.278Z,13.13
2019-04-25T23:57:47.403Z,14.50
